Time;durP1;ratioP1;P1;durP2;ratioP2;P2;SDS_P1;SDS_P2;PMS_P1;PMS_P2;Temp;Humidity;BMP_temperature;BMP_pressure;BME280_temperature;BME280_humidity;BME280_pressure;Samples;Min_cycle;Max_cycle;Signal;HPM_P1;HPM_P2
2022/05/23 00:01:52;;;;;;;4.93;3.40;;;;;;;13.90;69.19;93232.75;5069508;28;20093;-52
2022/05/23 00:04:19;;;;;;;5.85;3.30;;;;;;;13.93;68.98;93234.63;5069971;28;20040;-53
2022/05/23 00:06:46;;;;;;;5.50;3.40;;;;;;;13.95;68.70;93234.19;5069215;28;20527;-55
2022/05/23 00:09:13;;;;;;;6.07;3.22;;;;;;;13.92;69.04;93226.78;5069844;28;20420;-54
2022/05/23 00:11:40;;;;;;;5.67;3.50;;;;;;;13.77;69.45;93223.84;5068903;28;20059;-57
2022/05/23 00:14:07;;;;;;;5.43;3.20;;;;;;;13.73;69.57;93221.22;5069818;28;20499;-51
2022/05/23 00:16:38;;;;;;;6.85;3.50;;;;;;;13.70;69.67;93219.38;5069114;28;20497;-52
2022/05/23 00:19:05;;;;;;;5.43;3.60;;;;;;;13.68;70.08;93212.75;5069891;28;20401;-53
2022/05/23 00:21:31;;;;;;;6.75;4.18;;;;;;;13.66;70.25;93206.91;5068760;28;20040;-49
2022/05/23 00:23:58;;;;;;;7.93;4.90;;;;;;;13.64;70.23;93203.84;5071003;28;20040;-52
2022/05/23 00:26:26;;;;;;;6.60;4.00;;;;;;;13.68;69.90;93205.25;5087859;28;20043;-52
2022/05/23 00:28:52;;;;;;;6.25;3.60;;;;;;;13.71;69.67;93200.81;5089305;28;20047;-51
2022/05/23 00:31:19;;;;;;;7.13;3.72;;;;;;;13.50;70.61;93196.88;5089807;28;20477;-56
2022/05/23 00:36:33;;;;;;;5.80;3.80;;;;;;;13.27;71.99;93185.09;5089648;28;20040;-50
2022/05/23 00:39:00;;;;;;;6.00;3.60;;;;;;;13.16;72.06;93171.75;5089436;28;20050;-51
2022/05/23 00:44:18;;;;;;;6.68;4.05;;;;;;;13.29;71.65;93162.63;5089954;28;20485;-49
2022/05/23 00:46:58;;;;;;;6.07;4.10;;;;;;;13.32;71.41;93168.03;5092172;28;20101;-50
2022/05/23 00:49:29;;;;;;;8.80;4.17;;;;;;;13.31;71.90;93158.22;5092892;28;20393;-52
2022/05/23 00:52:00;;;;;;;8.05;3.85;;;;;;;13.34;71.49;93153.78;5093066;28;20044;-50
2022/05/23 00:54:34;;;;;;;6.65;4.30;;;;;;;13.39;71.52;93148.47;5084745;28;20450;-51
2022/05/23 00:57:12;;;;;;;7.05;3.90;;;;;;;13.44;71.20;93154.59;5093504;28;20067;-54
2022/05/23 00:59:39;;;;;;;6.28;4.20;;;;;;;13.44;70.92;93140.81;5092818;28;20052;-54
2022/05/23 01:02:09;;;;;;;6.90;4.10;;;;;;;13.23;71.87;93137.63;5093425;28;20059;-52
2022/05/23 01:04:35;;;;;;;6.13;4.25;;;;;;;13.11;72.35;93131.00;5092450;28;20048;-55
2022/05/23 01:07:02;;;;;;;7.13;4.18;;;;;;;13.13;72.64;93141.56;5093076;28;20044;-53
2022/05/23 01:09:29;;;;;;;5.75;4.15;;;;;;;13.19;72.06;93131.50;5092164;28;20059;-57
2022/05/23 01:11:58;;;;;;;6.88;3.92;;;;;;;13.24;72.21;93143.91;5091544;28;20032;-51
2022/05/23 01:14:26;;;;;;;6.70;3.80;;;;;;;13.26;71.52;93135.97;5092733;28;20052;-50
2022/05/23 01:16:52;;;;;;;5.72;3.80;;;;;;;13.21;71.57;93129.06;5092680;28;20049;-51
2022/05/23 01:19:19;;;;;;;6.20;3.80;;;;;;;13.20;72.01;93127.53;5092646;28;20400;-52
2022/05/23 01:21:59;;;;;;;5.95;3.90;;;;;;;13.25;71.50;93123.41;5090072;28;20040;-51
2022/05/23 01:24:45;;;;;;;5.78;3.90;;;;;;;13.24;71.41;93133.69;5079069;28;20049;-51
2022/05/23 01:27:12;;;;;;;8.47;5.10;;;;;;;13.22;71.66;93138.88;5072174;28;20053;-54
2022/05/23 01:29:43;;;;;;;6.50;3.88;;;;;;;13.10;71.85;93137.72;5070707;28;20044;-47
2022/05/23 01:32:10;;;;;;;6.35;4.10;;;;;;;12.95;72.26;93142.97;5072262;28;20050;-51
2022/05/23 01:34:37;;;;;;;7.05;4.28;;;;;;;12.97;72.35;93143.31;5070575;28;20115;-57
2022/05/23 01:37:04;;;;;;;5.43;3.80;;;;;;;12.94;72.45;93135.19;5071589;28;20040;-52
2022/05/23 01:39:30;;;;;;;6.07;3.60;;;;;;;12.98;72.38;93147.59;5071553;28;20366;-48
2022/05/23 01:41:57;;;;;;;6.97;3.63;;;;;;;13.01;72.11;93151.44;5072165;28;20032;-49
2022/05/23 01:44:24;;;;;;;5.53;3.83;;;;;;;13.03;72.35;93151.75;5071312;28;20041;-46
2022/05/23 01:46:51;;;;;;;5.80;3.83;;;;;;;13.13;71.83;93158.09;5072120;28;20489;-49
2022/05/23 01:49:17;;;;;;;5.85;3.90;;;;;;;13.17;71.70;93156.72;5072008;28;20047;-54
2022/05/23 01:51:45;;;;;;;5.33;3.60;;;;;;;13.16;71.45;93151.69;5071635;28;20101;-55
2022/05/23 01:54:12;;;;;;;5.68;3.58;;;;;;;12.94;72.63;93154.47;5072303;28;20049;-52
2022/05/23 01:56:39;;;;;;;4.65;3.42;;;;;;;12.97;72.53;93150.81;5089581;28;20407;-49
2022/05/23 02:01:51;;;;;;;13.25;7.95;;;;;;;13.16;71.92;93146.94;5082960;28;21793;-50
2022/05/23 02:04:17;;;;;;;7.10;4.60;;;;;;;13.15;71.48;93144.63;5092315;28;20066;-54
2022/05/23 02:06:44;;;;;;;5.13;3.22;;;;;;;13.00;71.84;93141.66;5091907;28;20044;-51
2022/05/23 02:09:12;;;;;;;5.28;3.65;;;;;;;12.99;71.92;93140.88;5092101;28;20407;-49
2022/05/23 02:11:38;;;;;;;5.57;3.70;;;;;;;12.83;72.51;93132.81;5091643;28;20046;-49
2022/05/23 02:14:05;;;;;;;6.55;3.75;;;;;;;12.75;73.29;93126.03;5091600;28;20050;-51
2022/05/23 02:16:32;;;;;;;5.53;3.37;;;;;;;12.74;73.53;93122.53;5091661;28;20392;-57
2022/05/23 02:19:00;;;;;;;6.63;3.42;;;;;;;12.83;73.43;93121.03;5091341;28;20484;-50
2022/05/23 02:21:26;;;;;;;5.95;3.40;;;;;;;12.93;72.99;93126.16;5090912;28;20054;-49
2022/05/23 02:23:53;;;;;;;6.40;3.83;;;;;;;13.03;72.54;93121.47;5080049;28;20041;-55
2022/05/23 02:26:20;;;;;;;5.32;3.28;;;;;;;13.12;71.94;93109.72;5051621;28;20075;-52
2022/05/23 02:28:46;;;;;;;7.00;3.97;;;;;;;12.89;73.02;93111.75;5050944;28;20041;-57
2022/05/23 02:31:13;;;;;;;5.18;3.67;;;;;;;12.93;72.60;93115.13;5051417;28;20435;-51
2022/05/23 02:33:41;;;;;;;7.35;3.92;;;;;;;12.98;72.61;93109.03;5051090;28;20482;-53
2022/05/23 02:36:09;;;;;;;7.60;4.20;;;;;;;12.82;73.37;93108.47;5050967;28;20047;-54
2022/05/23 02:38:35;;;;;;;6.07;3.75;;;;;;;12.81;73.38;93102.22;5050734;28;20051;-52
2022/05/23 02:41:02;;;;;;;7.70;3.97;;;;;;;12.95;73.19;93107.19;5050879;28;20102;-49
2022/05/23 02:43:30;;;;;;;6.93;4.57;;;;;;;13.04;72.50;93100.19;5050578;28;20041;-51
2022/05/23 02:45:56;;;;;;;5.63;3.90;;;;;;;13.08;72.63;93101.59;5050923;28;20045;-53
2022/05/23 02:48:24;;;;;;;7.05;4.30;;;;;;;12.97;73.30;93095.72;5050928;28;20048;-57
2022/05/23 02:50:50;;;;;;;5.82;3.95;;;;;;;12.90;73.55;93087.75;5049349;28;20480;-52
2022/05/23 02:53:17;;;;;;;6.43;4.23;;;;;;;12.99;73.40;93074.00;5050807;28;20051;-56
2022/05/23 02:55:44;;;;;;;6.00;4.05;;;;;;;13.08;73.25;93079.56;5050545;28;20386;-50
2022/05/23 02:58:10;;;;;;;6.28;3.70;;;;;;;13.22;72.39;93077.47;5050693;28;20044;-48
2022/05/23 03:00:37;;;;;;;6.38;3.90;;;;;;;13.18;72.54;93092.16;5049111;28;20040;-48
2022/05/23 03:03:08;;;;;;;6.70;3.83;;;;;;;13.14;73.00;93097.03;5050398;28;20037;-51
2022/05/23 03:05:46;;;;;;;5.87;4.13;;;;;;;12.95;73.71;93095.41;5050377;28;20437;-53
2022/05/23 03:08:16;;;;;;;7.13;4.13;;;;;;;12.75;74.54;93088.25;5050280;28;20067;-52
2022/05/23 03:10:43;;;;;;;7.35;4.18;;;;;;;12.91;74.00;93075.50;5049457;28;20045;-52
2022/05/23 03:13:11;;;;;;;7.13;4.50;;;;;;;13.09;73.21;93070.06;5050368;28;20040;-50
2022/05/23 03:15:37;;;;;;;7.60;4.60;;;;;;;13.16;73.16;93058.03;5049478;28;20421;-51
2022/05/23 03:18:05;;;;;;;8.50;4.47;;;;;;;13.26;72.30;93056.06;5050378;28;20041;-53
2022/05/23 03:20:32;;;;;;;7.93;4.53;;;;;;;13.30;72.43;93052.00;5049673;28;20384;-53
2022/05/23 03:28:33;;;;;;;8.63;4.43;;;;;;;13.43;71.45;93084.16;5049584;28;20381;-53
2022/05/23 03:31:00;;;;;;;8.93;4.60;;;;;;;13.42;71.77;93088.94;5049788;28;20037;-51
2022/05/23 03:33:27;;;;;;;7.30;4.65;;;;;;;13.14;72.39;93097.03;5049641;28;20047;-49
2022/05/23 03:35:53;;;;;;;7.30;4.43;;;;;;;13.10;72.85;93101.91;5049655;28;20474;-55
2022/05/23 03:38:22;;;;;;;7.28;4.55;;;;;;;13.24;72.47;93099.81;5048973;28;20047;-50
2022/05/23 03:40:49;;;;;;;6.82;4.45;;;;;;;13.22;72.27;93105.03;5049650;28;20634;-49
2022/05/23 03:43:16;;;;;;;6.70;4.57;;;;;;;13.41;73.08;93106.66;5050140;28;20041;-54
2022/05/23 03:45:43;;;;;;;7.32;4.70;;;;;;;13.48;73.30;93092.63;5047594;28;20134;-50
2022/05/23 03:48:11;;;;;;;8.60;4.70;;;;;;;13.35;72.97;93073.41;5049787;28;20078;-48
2022/05/23 03:50:38;;;;;;;7.68;4.40;;;;;;;13.48;73.39;93076.09;5049342;28;20049;-49
2022/05/23 03:53:06;;;;;;;9.48;4.95;;;;;;;13.58;74.78;93087.88;5055091;28;20501;-48
2022/05/23 03:55:33;;;;;;;7.67;4.50;;;;;;;13.66;74.08;93085.59;5087597;28;20048;-49
2022/05/23 03:57:59;;;;;;;8.23;4.80;;;;;;;13.66;73.56;93063.56;5090011;28;20087;-54
2022/05/23 04:00:26;;;;;;;8.52;4.65;;;;;;;13.56;74.45;93040.69;5088463;28;20074;-51
2022/05/23 04:02:53;;;;;;;6.22;4.38;;;;;;;13.59;74.78;93072.88;5089742;28;20048;-58
2022/05/23 04:05:19;;;;;;;7.60;4.70;;;;;;;13.69;74.94;93076.44;5090005;28;20040;-50
2022/05/23 04:07:46;;;;;;;10.20;4.53;;;;;;;13.77;75.07;93089.47;5088626;28;20361;-51
2022/05/23 04:10:16;;;;;;;7.10;4.75;;;;;;;13.31;76.86;93118.88;5089484;28;20124;-54
2022/05/23 04:12:44;;;;;;;8.00;4.65;;;;;;;13.03;76.66;93115.19;5089633;28;20497;-53
2022/05/23 04:15:12;;;;;;;9.15;4.50;;;;;;;12.91;77.77;93134.09;5089665;28;20386;-57
2022/05/23 04:17:39;;;;;;;8.55;5.18;;;;;;;13.08;76.98;93139.38;5088096;28;20055;-51
2022/05/23 04:20:08;;;;;;;8.20;5.53;;;;;;;13.05;78.67;93135.56;5089326;28;20468;-56
2022/05/23 04:22:36;;;;;;;9.55;6.28;;;;;;;13.17;77.87;93136.69;5092128;28;20143;-55
2022/05/23 04:25:05;;;;;;;7.82;5.30;;;;;;;13.42;77.54;93138.53;5092609;28;20397;-56
2022/05/23 04:27:31;;;;;;;7.32;4.68;;;;;;;13.63;76.41;93136.16;5092474;28;20048;-58
2022/05/23 04:29:58;;;;;;;6.00;4.35;;;;;;;13.62;77.11;93143.63;5093067;28;20040;-55
2022/05/23 04:35:13;;;;;;;7.60;5.15;;;;;;;13.58;77.04;93151.28;5091350;28;20047;-50
2022/05/23 04:37:45;;;;;;;8.27;5.53;;;;;;;13.13;79.05;93153.34;5091734;28;20048;-50
2022/05/23 04:40:16;;;;;;;9.93;5.70;;;;;;;12.81;82.04;93148.25;5092050;28;20048;-56
2022/05/23 04:42:43;;;;;;;8.27;5.57;;;;;;;12.84;80.47;93145.38;5091758;28;20412;-56
2022/05/23 04:45:11;;;;;;;7.70;5.20;;;;;;;13.15;79.88;93142.63;5092989;28;20405;-52
2022/05/23 04:50:24;;;;;;;7.20;4.88;;;;;;;13.72;78.25;93122.38;5093292;28;20054;-51
2022/05/23 04:52:52;;;;;;;10.50;5.47;;;;;;;13.81;77.79;93136.22;5085982;28;21546;-53
2022/05/23 04:55:20;;;;;;;8.45;5.03;;;;;;;13.86;78.04;93132.84;5072445;28;20045;-55
2022/05/23 04:57:47;;;;;;;9.97;4.97;;;;;;;14.07;77.39;93119.41;5072551;28;20041;-54
2022/05/23 05:00:18;;;;;;;8.82;5.22;;;;;;;14.09;76.50;93131.53;5072690;28;20053;-51
2022/05/23 05:02:47;;;;;;;6.80;4.75;;;;;;;14.20;76.85;93136.59;5081108;28;20059;-56
2022/05/23 05:05:15;;;;;;;14.65;5.32;;;;;;;14.13;76.36;93115.59;5073208;28;20101;-55
2022/05/23 05:07:42;;;;;;;8.05;4.80;;;;;;;14.27;76.10;93111.47;5072577;28;20049;-54
2022/05/23 05:10:09;;;;;;;9.63;5.50;;;;;;;14.13;76.08;93109.31;5072920;28;20043;-53
2022/05/23 05:12:36;;;;;;;23.63;13.38;;;;;;;14.22;77.26;93098.25;5072493;28;20052;-49
2022/05/23 05:15:03;;;;;;;17.38;9.75;;;;;;;14.51;76.90;93094.28;5072735;28;20036;-52
2022/05/23 05:17:30;;;;;;;12.20;7.68;;;;;;;14.70;76.69;93087.53;5072033;28;20044;-51
2022/05/23 05:19:56;;;;;;;9.20;5.63;;;;;;;14.68;77.82;93109.31;5072215;28;20045;-58
2022/05/23 05:22:23;;;;;;;7.87;5.17;;;;;;;14.91;77.12;93104.38;5072555;28;20043;-53
2022/05/23 05:24:50;;;;;;;7.60;4.70;;;;;;;15.01;75.25;93083.81;5071972;28;20041;-47
2022/05/23 05:27:17;;;;;;;12.98;5.07;;;;;;;15.15;74.45;93085.13;5072335;28;20059;-56
2022/05/23 05:29:43;;;;;;;9.43;4.90;;;;;;;15.15;73.93;93083.16;5070631;28;20409;-55
2022/05/23 05:32:36;;;;;;;8.95;4.85;;;;;;;15.18;73.30;93073.91;5071661;28;20045;-53
2022/05/23 05:35:12;;;;;;;10.60;4.90;;;;;;;15.23;72.61;93067.00;5060657;28;20276;-47
2022/05/23 05:37:47;;;;;;;8.77;4.95;;;;;;;15.26;71.73;93059.78;5071897;28;20053;-51
2022/05/23 05:40:18;;;;;;;7.90;4.93;;;;;;;15.35;71.73;93051.44;5072114;28;20413;-52
2022/05/23 05:42:50;;;;;;;8.38;5.40;;;;;;;15.41;71.68;93044.03;5071777;28;20117;-52
2022/05/23 05:45:32;;;;;;;7.90;5.00;;;;;;;15.49;71.70;93044.47;5072041;28;20403;-50
2022/05/23 05:48:00;;;;;;;8.33;5.10;;;;;;;15.58;70.97;93030.59;5071012;28;20706;-49
2022/05/23 05:50:44;;;;;;;8.52;5.15;;;;;;;15.93;70.11;93032.84;5071271;28;20097;-51
2022/05/23 05:53:28;;;;;;;10.50;5.85;;;;;;;16.07;70.31;93023.84;5077026;28;20059;-52
2022/05/23 05:55:54;;;;;;;8.07;5.25;;;;;;;15.44;74.03;93018.22;5091325;28;20677;-48
2022/05/23 05:58:21;;;;;;;9.60;5.72;;;;;;;15.19;75.08;92991.75;5092032;28;20055;-50
2022/05/23 06:00:48;;;;;;;14.60;10.60;;;;;;;15.65;73.73;92993.53;5091869;28;20349;-54
2022/05/23 06:03:15;;;;;;;7.78;5.53;;;;;;;15.94;72.33;92982.59;5091800;28;20128;-50
2022/05/23 06:11:23;;;;;;;9.82;6.50;;;;;;;17.63;66.59;92976.31;5091465;28;20044;-56
2022/05/23 06:13:52;;;;;;;9.77;5.47;;;;;;;18.65;61.68;92985.81;5091097;28;20826;-51
2022/05/23 06:16:19;;;;;;;5.97;4.60;;;;;;;18.33;62.20;92985.75;5091325;28;20048;-48
2022/05/23 06:18:47;;;;;;;7.63;5.55;;;;;;;17.34;66.33;92974.38;5091382;28;20040;-51
2022/05/23 06:21:15;;;;;;;7.82;5.30;;;;;;;17.15;66.00;92966.31;5091214;28;20040;-51
2022/05/23 06:23:43;;;;;;;8.52;7.05;;;;;;;16.49;68.46;92956.41;5088805;28;20386;-54
2022/05/23 06:26:09;;;;;;;9.83;5.50;;;;;;;16.96;67.37;92965.78;5071154;28;20067;-56
2022/05/23 06:28:36;;;;;;;8.77;5.20;;;;;;;17.74;64.82;92973.66;5070904;28;20070;-54
2022/05/23 06:31:03;;;;;;;7.25;5.63;;;;;;;19.03;61.29;92979.09;5070991;28;20055;-52
2022/05/23 06:33:30;;;;;;;7.25;5.22;;;;;;;19.38;59.53;92966.97;5070697;28;20052;-53
2022/05/23 06:35:57;;;;;;;8.27;5.45;;;;;;;17.54;64.55;92974.41;5071224;28;20036;-53
2022/05/23 06:38:25;;;;;;;9.47;5.43;;;;;;;17.94;63.66;92974.97;5070827;28;20041;-53
2022/05/23 06:40:52;;;;;;;8.32;6.15;;;;;;;17.97;64.01;92976.78;5082455;28;20654;-54
2022/05/23 06:43:19;;;;;;;9.27;6.05;;;;;;;17.59;64.98;92972.97;5090506;28;20044;-55
2022/05/23 06:45:47;;;;;;;9.20;6.45;;;;;;;17.75;64.08;92966.88;5090904;28;20050;-55
2022/05/23 06:48:14;;;;;;;7.80;6.28;;;;;;;17.91;64.12;92975.94;5089921;28;20411;-52
2022/05/23 06:50:43;;;;;;;9.97;6.40;;;;;;;19.50;59.48;92979.69;5090465;28;20388;-54
2022/05/23 06:53:11;;;;;;;9.23;5.93;;;;;;;20.15;56.10;92981.81;5076838;28;20051;-50
2022/05/23 06:55:37;;;;;;;9.32;6.68;;;;;;;20.51;54.63;92990.53;5050623;28;20056;-51
2022/05/23 06:58:05;;;;;;;8.05;5.97;;;;;;;21.39;52.63;92986.06;5050381;28;20051;-49
2022/05/23 07:00:32;;;;;;;8.88;5.00;;;;;;;22.16;49.59;92989.25;5050221;28;20044;-52
2022/05/23 07:02:58;;;;;;;8.47;5.03;;;;;;;21.94;51.23;92988.03;5050504;28;20047;-54
2022/05/23 07:13:41;;;;;;;5.63;3.60;;;;;;;27.50;37.54;92973.28;5070081;28;20071;-51
2022/05/23 07:16:09;;;;;;;5.63;3.40;;;;;;;27.75;36.07;92972.94;5070093;28;20049;-52
2022/05/23 07:18:38;;;;;;;6.57;3.33;;;;;;;26.92;37.07;92975.13;5069921;28;20121;-52
2022/05/23 07:21:07;;;;;;;8.35;3.40;;;;;;;25.11;40.87;92975.63;5069664;28;20414;-52
2022/05/23 07:23:37;;;;;;;5.82;3.55;;;;;;;24.10;43.66;92974.13;5071030;28;20397;-53
2022/05/23 07:26:06;;;;;;;7.03;4.00;;;;;;;22.91;47.25;92969.53;5081752;28;20047;-57
2022/05/23 07:28:35;;;;;;;8.13;4.70;;;;;;;22.61;48.96;92960.34;5089951;28;20515;-48
2022/05/23 07:31:02;;;;;;;8.30;4.60;;;;;;;22.70;49.33;92968.44;5090460;28;20403;-50
2022/05/23 07:33:30;;;;;;;6.55;4.82;;;;;;;22.39;49.74;92969.59;5089329;28;20040;-48
2022/05/23 07:35:58;;;;;;;8.15;4.68;;;;;;;22.08;49.64;92955.47;5088040;28;20047;-51
2022/05/23 07:38:25;;;;;;;6.75;4.80;;;;;;;21.74;51.54;92971.59;5088570;28;20534;-50
2022/05/23 07:40:53;;;;;;;7.33;4.57;;;;;;;22.29;50.00;92964.28;5087901;28;20070;-55
2022/05/23 07:43:20;;;;;;;8.98;4.65;;;;;;;23.31;48.04;92970.03;5089106;28;20050;-55
2022/05/23 07:45:49;;;;;;;7.60;4.57;;;;;;;23.32;46.41;92979.97;5088938;28;20040;-56
2022/05/23 07:48:16;;;;;;;6.88;4.35;;;;;;;22.80;47.28;92971.66;5089619;28;20060;-54
2022/05/23 07:50:44;;;;;;;8.02;4.28;;;;;;;22.61;48.47;92977.09;5088494;28;20051;-53
2022/05/23 08:01:28;;;;;;;7.50;4.20;;;;;;;29.04;35.50;92977.09;5068595;28;20070;-52
2022/05/23 08:03:55;;;;;;;6.20;3.70;;;;;;;28.42;34.86;92965.50;5069759;28;20105;-55
2022/05/23 08:06:22;;;;;;;6.70;3.77;;;;;;;29.91;32.65;92968.97;5069768;28;20093;-56
2022/05/23 08:08:49;;;;;;;6.47;3.78;;;;;;;30.22;32.01;92967.63;5068098;28;20458;-55
2022/05/23 08:11:17;;;;;;;5.80;3.50;;;;;;;30.02;31.75;92963.69;5069419;28;20044;-52
2022/05/23 08:13:47;;;;;;;5.60;3.63;;;;;;;30.31;31.61;92954.25;5068999;28;20036;-51
2022/05/23 08:16:14;;;;;;;5.25;3.50;;;;;;;28.03;34.12;92946.84;5069340;28;20044;-51
2022/05/23 08:18:41;;;;;;;5.83;3.50;;;;;;;27.62;35.99;92945.59;5068960;28;20121;-51
2022/05/23 08:21:08;;;;;;;6.85;3.80;;;;;;;27.18;36.74;92945.34;5067569;28;20394;-51
2022/05/23 08:23:35;;;;;;;6.35;3.75;;;;;;;27.56;36.12;92928.06;5072428;28;20057;-51
2022/05/23 08:26:02;;;;;;;6.68;3.78;;;;;;;27.94;35.10;92936.84;5069266;28;20405;-49
2022/05/23 08:28:29;;;;;;;6.95;3.67;;;;;;;26.52;38.11;92941.41;5067747;28;20044;-53
2022/05/23 08:30:57;;;;;;;5.43;3.70;;;;;;;25.07;40.42;92929.47;5070939;28;20513;-51
2022/05/23 08:33:23;;;;;;;6.43;4.07;;;;;;;25.23;40.83;92928.50;5089846;28;20416;-52
2022/05/23 08:35:50;;;;;;;6.25;3.97;;;;;;;25.57;40.44;92932.75;5088791;28;20668;-52
2022/05/23 08:38:17;;;;;;;8.30;4.00;;;;;;;24.87;41.71;92930.81;5089584;28;20461;-51
2022/05/23 08:40:51;;;;;;;7.03;3.83;;;;;;;24.88;41.46;92912.69;5088972;28;20056;-51
2022/05/23 08:43:38;;;;;;;6.43;4.03;;;;;;;24.49;42.28;92922.41;5089556;28;20048;-52
2022/05/23 08:46:08;;;;;;;5.70;4.05;;;;;;;23.66;44.82;92914.44;5082401;28;20482;-54
2022/05/23 08:48:47;;;;;;;5.97;4.10;;;;;;;23.12;46.22;92913.97;5087899;28;20067;-50
2022/05/23 08:51:23;;;;;;;6.65;4.10;;;;;;;23.39;45.74;92905.06;5089094;28;20052;-52
2022/05/23 08:53:59;;;;;;;6.93;4.30;;;;;;;23.21;45.96;92901.66;5088344;28;20873;-57
2022/05/23 08:56:47;;;;;;;6.03;3.90;;;;;;;23.51;45.32;92898.06;5089138;28;20047;-50
2022/05/23 08:59:19;;;;;;;8.00;4.30;;;;;;;24.10;44.26;92892.84;5089227;28;20040;-49
2022/05/23 09:01:51;;;;;;;7.15;4.05;;;;;;;27.83;37.51;92884.28;5088461;28;20070;-53
2022/05/23 09:04:31;;;;;;;5.85;3.55;;;;;;;29.15;34.45;92894.84;5089169;28;20040;-49
2022/05/23 09:07:00;;;;;;;7.57;4.05;;;;;;;29.91;32.79;92893.34;5090271;28;20604;-57
2022/05/23 09:09:31;;;;;;;5.47;3.67;;;;;;;30.93;31.50;92893.25;5092526;28;20040;-54
2022/05/23 09:12:07;;;;;;;7.65;3.70;;;;;;;30.34;32.15;92885.91;5092763;28;20047;-50
2022/05/23 09:14:34;;;;;;;5.32;3.92;;;;;;;31.37;30.09;92877.81;5092583;28;20044;-49
2022/05/23 09:17:02;;;;;;;5.93;3.90;;;;;;;29.53;33.36;92896.19;5093103;28;20384;-49
2022/05/23 09:19:43;;;;;;;6.55;4.10;;;;;;;31.41;30.77;92878.16;5091048;28;20046;-56
2022/05/23 09:22:27;;;;;;;7.50;3.70;;;;;;;29.66;33.98;92881.84;5092682;28;20389;-54
2022/05/23 09:24:57;;;;;;;6.18;4.03;;;;;;;30.51;32.08;92885.28;5076038;28;20102;-52
2022/05/23 09:27:26;;;;;;;5.63;3.70;;;;;;;30.02;33.59;92890.13;5072302;28;20086;-56
2022/05/23 09:29:55;;;;;;;9.00;4.25;;;;;;;28.94;35.34;92880.84;5071599;28;20701;-52
2022/05/23 09:32:26;;;;;;;8.00;4.22;;;;;;;27.66;36.81;92889.63;5072286;28;20041;-54
2022/05/23 09:34:57;;;;;;;7.07;4.00;;;;;;;26.33;40.06;92887.38;5071253;28;20063;-51
2022/05/23 09:37:31;;;;;;;7.50;4.10;;;;;;;25.68;41.23;92893.22;5072524;28;20382;-52
2022/05/23 09:39:59;;;;;;;7.80;4.10;;;;;;;25.33;43.29;92908.41;5071583;28;20353;-56
2022/05/23 09:48:21;;;;;;;7.20;4.30;;;;;;;26.39;40.44;92914.06;5071177;28;20048;-54
2022/05/23 09:51:07;;;;;;;6.60;4.43;;;;;;;26.88;39.79;92921.22;5071638;28;20049;-51
2022/05/23 09:53:52;;;;;;;9.07;4.72;;;;;;;26.77;39.96;92919.41;5071291;28;20409;-53
2022/05/23 09:56:40;;;;;;;15.77;4.80;;;;;;;26.46;40.99;92932.34;5071879;28;20488;-51
2022/05/23 09:59:32;;;;;;;7.95;4.50;;;;;;;26.33;41.19;92938.00;5095147;28;20044;-57
2022/05/23 10:02:30;;;;;;;9.27;4.53;;;;;;;26.15;42.39;92934.00;5075786;28;20404;-53
2022/05/23 10:04:57;;;;;;;7.45;4.57;;;;;;;25.91;42.52;92933.69;5091217;28;20740;-56
2022/05/23 10:07:37;;;;;;;7.55;4.55;;;;;;;25.79;42.52;92915.50;5090598;28;20511;-51
2022/05/23 10:10:25;;;;;;;7.57;4.55;;;;;;;25.70;43.14;92910.31;5091161;28;20036;-50
2022/05/23 10:13:13;;;;;;;8.35;4.82;;;;;;;25.39;44.88;92917.50;5091030;28;20576;-52
2022/05/23 10:15:46;;;;;;;8.87;4.73;;;;;;;24.80;47.41;92935.00;5091373;28;20055;-53
2022/05/23 10:18:36;;;;;;;7.30;4.70;;;;;;;23.86;51.59;92961.63;5090651;28;20040;-51
2022/05/23 10:21:23;;;;;;;9.52;4.25;;;;;;;22.83;55.50;93004.19;5085804;28;20032;-52
2022/05/23 10:24:00;;;;;;;9.77;4.80;;;;;;;22.32;53.29;93049.19;5064044;28;20041;-52
2022/05/23 10:26:30;;;;;;;9.27;4.90;;;;;;;22.39;53.61;93096.16;5050639;28;20064;-52
2022/05/23 10:29:05;;;;;;;10.40;5.47;;;;;;;22.25;54.87;93083.22;5051456;28;20033;-53
2022/05/23 10:31:37;;;;;;;11.30;5.68;;;;;;;21.81;56.30;93118.31;5050391;28;20053;-49
2022/05/23 10:34:25;;;;;;;10.40;5.80;;;;;;;21.46;59.67;93125.91;5051215;28;20364;-52
2022/05/23 10:36:54;;;;;;;10.90;5.10;;;;;;;21.35;61.17;93115.50;5057995;28;21088;-51
2022/05/23 10:42:34;;;;;;;9.67;3.40;;;;;;;19.42;65.18;93136.44;5049989;28;21809;-52
2022/05/23 10:45:16;;;;;;;9.27;3.20;;;;;;;18.10;68.06;93068.78;5050218;28;21674;-53
2022/05/23 10:48:10;;;;;;;9.07;2.75;;;;;;;18.43;65.71;93055.78;5048983;28;20413;-55
2022/05/23 10:50:36;;;;;;;8.50;2.10;;;;;;;18.52;63.91;93023.06;5049658;28;20041;-51
2022/05/23 10:53:41;;;;;;;7.35;2.40;;;;;;;17.42;67.65;92994.16;5049934;28;20383;-51
2022/05/23 10:56:18;;;;;;;8.20;2.20;;;;;;;17.84;66.01;92984.66;5049551;28;20366;-51
2022/05/23 10:58:56;;;;;;;7.82;2.40;;;;;;;17.53;68.88;92967.34;5049527;28;20053;-52
2022/05/23 11:01:49;;;;;;;5.60;2.00;;;;;;;16.84;71.82;92975.16;5050348;28;20521;-52
2022/05/23 11:04:38;;;;;;;7.88;2.50;;;;;;;16.48;73.94;92965.19;5049249;28;20410;-57
2022/05/23 11:07:16;;;;;;;12.20;2.72;;;;;;;16.34;75.11;92952.88;5047884;28;20631;-50
2022/05/23 11:09:56;;;;;;;10.37;2.73;;;;;;;17.20;72.64;92939.91;5049880;28;20047;-50
2022/05/23 11:12:34;;;;;;;14.98;2.50;;;;;;;18.16;69.79;92927.25;5049287;28;20387;-52
2022/05/23 11:15:24;;;;;;;6.50;2.40;;;;;;;18.77;68.75;92927.06;5049712;28;20409;-50
2022/05/23 11:18:22;;;;;;;6.13;2.30;;;;;;;19.42;67.12;92916.63;5049179;28;20147;-52
2022/05/23 11:20:55;;;;;;;8.50;2.80;;;;;;;19.91;65.49;92906.28;5049951;28;20044;-52
2022/05/23 11:23:57;;;;;;;6.23;2.50;;;;;;;20.33;65.75;92896.25;5053147;28;20075;-56
2022/05/23 11:26:37;;;;;;;6.38;2.22;;;;;;;20.49;64.24;92884.38;5056754;28;21828;-50
2022/05/23 11:35:07;;;;;;;6.47;2.22;;;;;;;21.50;58.72;92880.78;5069334;28;20230;-49
2022/05/23 11:37:42;;;;;;;5.87;2.27;;;;;;;21.77;59.54;92870.00;5069537;28;20045;-52
2022/05/23 11:40:38;;;;;;;8.43;2.10;;;;;;;21.83;57.93;92867.19;5069705;28;20447;-54
2022/05/23 11:43:10;;;;;;;5.25;2.10;;;;;;;22.53;54.71;92863.00;5069041;28;20730;-55
2022/05/23 11:45:59;;;;;;;7.65;2.15;;;;;;;23.07;52.24;92864.38;5069484;28;20097;-50
2022/05/23 11:48:41;;;;;;;7.80;2.10;;;;;;;23.01;50.45;92851.72;5067967;28;20044;-53
2022/05/23 11:51:23;;;;;;;5.70;2.40;;;;;;;23.43;51.21;92852.34;5069720;28;20440;-52
2022/05/23 11:54:01;;;;;;;7.18;1.98;;;;;;;23.52;48.27;92847.16;5079869;28;20046;-55
2022/05/23 11:56:36;;;;;;;5.32;2.20;;;;;;;23.00;49.67;92839.75;5089108;28;20044;-53
2022/05/23 11:59:04;;;;;;;7.43;2.20;;;;;;;22.97;51.03;92840.03;5089997;28;20039;-49
2022/05/23 12:01:31;;;;;;;7.43;2.17;;;;;;;23.97;47.57;92833.91;5089262;28;20516;-51
2022/05/23 12:04:01;;;;;;;5.83;2.00;;;;;;;23.43;49.66;92829.94;5089944;28;20494;-52
2022/05/23 12:06:28;;;;;;;5.53;2.10;;;;;;;22.67;52.43;92832.41;5087616;28;20077;-49
2022/05/23 12:08:57;;;;;;;9.10;2.50;;;;;;;22.23;53.91;92823.81;5089676;28;20040;-51
2022/05/23 12:11:27;;;;;;;5.45;2.30;;;;;;;20.89;57.16;92823.06;5089247;28;20155;-54
2022/05/23 12:13:59;;;;;;;5.25;2.03;;;;;;;21.55;56.47;92815.06;5087420;28;20811;-50
2022/05/23 12:16:32;;;;;;;5.60;2.07;;;;;;;22.76;53.16;92806.91;5089241;28;20724;-55
2022/05/23 12:19:08;;;;;;;6.22;2.00;;;;;;;22.87;53.50;92808.84;5089673;28;20511;-51
2022/05/23 12:21:35;;;;;;;6.80;2.38;;;;;;;22.58;52.64;92821.53;5087403;28;20070;-51
2022/05/23 12:24:24;;;;;;;6.78;2.33;;;;;;;23.38;50.55;92811.94;5084308;28;20401;-52
2022/05/23 12:27:28;;;;;;;6.32;2.30;;;;;;;23.98;49.14;92805.34;5088752;28;20050;-51
2022/05/23 12:30:24;;;;;;;5.50;2.03;;;;;;;24.42;48.02;92805.97;5088865;28;20564;-53
2022/05/23 12:33:19;;;;;;;6.55;2.22;;;;;;;24.47;46.63;92793.94;5088706;28;20365;-57
2022/05/23 12:35:59;;;;;;;7.50;2.17;;;;;;;24.51;47.65;92793.66;5088885;28;20469;-51
2022/05/23 12:38:57;;;;;;;8.65;2.35;;;;;;;24.53;47.61;92802.28;5089059;28;20054;-53
2022/05/23 12:41:53;;;;;;;8.02;2.10;;;;;;;24.43;47.04;92795.53;5089991;28;20048;-52
2022/05/23 12:44:37;;;;;;;7.47;2.30;;;;;;;23.83;47.99;92802.25;5092418;28;20071;-55
2022/05/23 12:47:36;;;;;;;6.15;2.00;;;;;;;24.47;46.39;92810.75;5092565;28;20872;-49
2022/05/23 12:50:12;;;;;;;8.27;2.35;;;;;;;24.35;46.07;92794.63;5092284;28;20146;-54